createdAt,value
2023-01-09T00:02:23.539Z,7.9
2023-01-09T00:12:24.285Z,7.8
2023-01-09T00:22:24.607Z,7.8
2023-01-09T00:32:25.238Z,7.9
2023-01-09T00:42:25.401Z,7.9
2023-01-09T00:52:25.996Z,7.8
2023-01-09T01:02:26.459Z,7.7
2023-01-09T01:22:26.801Z,7.7
2023-01-09T01:32:27.378Z,7.6
2023-01-09T01:42:27.920Z,7.5
2023-01-09T01:52:28.786Z,7.4
2023-01-09T02:12:29.684Z,7.4
2023-01-09T02:22:30.010Z,7.3
2023-01-09T02:32:30.163Z,7.2
2023-01-09T02:42:30.408Z,7
2023-01-09T02:52:31.009Z,7
2023-01-09T03:02:31.737Z,6.9
2023-01-09T03:12:32.089Z,6.7
2023-01-09T03:22:33.011Z,6.8
2023-01-09T03:32:34.139Z,6.8
2023-01-09T03:42:34.631Z,6.9
2023-01-09T03:52:35.208Z,6.9
2023-01-09T04:02:35.470Z,6.8
2023-01-09T04:12:35.913Z,6.7
2023-01-09T04:22:36.862Z,6.6
2023-01-09T04:42:37.795Z,6.4
2023-01-09T04:52:39.059Z,6.3
2023-01-09T05:02:39.496Z,6.3
2023-01-09T05:12:40.124Z,6.2
2023-01-09T05:22:40.337Z,6.2
2023-01-09T05:32:41.426Z,6.3
2023-01-09T05:52:42.741Z,6.5
2023-01-09T06:02:43.578Z,6.5
2023-01-09T06:12:43.882Z,6.6
2023-01-09T06:22:44.039Z,6.6
2023-01-09T06:32:44.892Z,6.6
2023-01-09T06:42:45.722Z,6.6
2023-01-09T06:52:46.601Z,6.6
2023-01-09T07:02:47.633Z,6.4
2023-01-09T07:12:48.605Z,6.4
2023-01-09T07:32:49.729Z,6.5
2023-01-09T07:42:50.381Z,6.7
2023-01-09T07:52:50.842Z,6.7
2023-01-09T08:02:51.341Z,6.9
2023-01-09T08:12:51.693Z,7.1
2023-01-09T08:22:51.991Z,7.1
2023-01-09T08:32:52.423Z,7
2023-01-09T08:42:52.785Z,7
2023-01-09T08:52:54.614Z,7
2023-01-09T09:02:54.455Z,7
2023-01-09T09:22:55.719Z,6.9
2023-01-09T09:32:56.725Z,6.9
2023-01-09T09:42:57.345Z,7
2023-01-09T09:52:57.898Z,7.1
2023-01-09T10:02:58.949Z,7.2
2023-01-09T10:12:59.604Z,7.3
2023-01-09T10:23:00.595Z,7.5
2023-01-09T10:33:01.565Z,7.5
2023-01-09T10:43:02.220Z,7.4
2023-01-09T10:53:02.429Z,7.3
2023-01-09T11:03:03.425Z,7.2
2023-01-09T11:23:04.503Z,7.4
2023-01-09T11:33:04.595Z,7.4
2023-01-09T11:53:05.499Z,7.4
2023-01-09T12:03:06.258Z,7.5
2023-01-09T13:13:09.877Z,7.5
2023-01-09T13:23:10.620Z,7.3
2023-01-09T13:33:10.714Z,7
2023-01-09T13:43:11.156Z,6.9
2023-01-09T13:53:11.572Z,7
2023-01-09T14:03:12.558Z,7
2023-01-09T14:13:13.303Z,7.1
2023-01-09T14:23:28.475Z,7.1
2023-01-09T14:33:14.479Z,7.2
2023-01-09T14:43:14.661Z,7.2
2023-01-09T14:53:14.971Z,7.2
2023-01-09T15:03:15.101Z,7
2023-01-09T15:23:16.292Z,6.9
2023-01-09T15:33:17.248Z,7
2023-01-09T15:43:17.642Z,7
2023-01-09T15:53:17.897Z,7
2023-01-09T16:23:19.098Z,6.7
2023-01-09T16:43:20.145Z,6.6
2023-01-09T16:53:21.178Z,6.6
2023-01-09T17:03:21.472Z,6.6
2023-01-09T17:13:21.823Z,6.6
2023-01-09T17:23:22.885Z,6.5
2023-01-09T17:33:23.627Z,6.4
2023-01-09T17:43:24.579Z,6.5
2023-01-09T17:53:25.611Z,6.6
2023-01-09T18:03:26.221Z,6.5
2023-01-09T18:23:26.827Z,6.2
2023-01-09T18:33:27.596Z,6.1
2023-01-09T18:43:28.029Z,5.9
2023-01-09T18:53:28.333Z,5.9
2023-01-09T19:03:28.733Z,5.9
2023-01-09T19:13:28.822Z,5.9
2023-01-09T19:23:29.632Z,5.9
2023-01-09T19:33:30.502Z,6
2023-01-09T19:43:30.868Z,6.1
2023-01-09T19:53:31.364Z,6.1
2023-01-09T20:03:31.713Z,6.2
2023-01-09T20:23:33.457Z,6.1
2023-01-09T20:33:33.785Z,6.1
2023-01-09T20:43:34.804Z,6.2
2023-01-09T20:53:34.949Z,6.3
2023-01-09T21:03:36.166Z,6.3
2023-01-09T21:23:36.361Z,6.3
2023-01-09T21:33:37.060Z,6.1
2023-01-09T21:43:37.990Z,6
2023-01-09T21:53:38.423Z,5.9
2023-01-09T22:03:38.685Z,5.9
2023-01-09T22:13:39.578Z,5.9
2023-01-09T22:23:39.781Z,5.9
2023-01-09T22:33:40.560Z,5.8
2023-01-09T22:43:40.902Z,5.6
2023-01-09T22:53:41.295Z,5.7
2023-01-09T23:13:41.950Z,5.5
2023-01-09T23:33:43.465Z,5.5
2023-01-09T23:43:44.367Z,5.6
2023-01-09T23:53:44.719Z,5.5
